Time;durP1;ratioP1;P1;durP2;ratioP2;P2;SDS_P1;SDS_P2;PMS_P1;PMS_P2;Temp;Humidity;BMP_temperature;BMP_pressure;BME280_temperature;BME280_humidity;BME280_pressure;Samples;Min_cycle;Max_cycle;Signal;HPM_P1;HPM_P2
2023/03/23 00:01:51;;;;;;;8.00;5.45;;;;;;;11.52;82.36;101481.69;5102103;28;20128;-89
2023/03/23 00:04:18;;;;;;;9.43;6.20;;;;;;;11.45;81.94;101472.56;5091529;28;20051;-90
2023/03/23 00:06:45;;;;;;;9.85;5.93;;;;;;;11.64;81.89;101492.91;5109144;28;20035;-90
2023/03/23 00:09:12;;;;;;;8.98;5.80;;;;;;;11.37;81.96;101455.50;5100635;28;20038;-89
2023/03/23 00:11:38;;;;;;;8.90;5.68;;;;;;;11.79;81.75;101516.50;5104027;28;20032;-89
2023/03/23 00:14:05;;;;;;;8.18;5.15;;;;;;;11.82;81.73;101516.66;5097691;28;20024;-89
2023/03/23 00:16:32;;;;;;;8.80;5.57;;;;;;;11.48;81.54;101464.91;5103935;28;20024;-88
2023/03/23 00:19:03;;;;;;;8.52;5.63;;;;;;;11.61;81.58;101480.53;5088029;28;20544;-90
2023/03/23 00:21:34;;;;;;;8.63;5.07;;;;;;;11.41;81.97;101457.50;5098558;28;20026;-89
2023/03/23 00:24:16;;;;;;;8.70;5.38;;;;;;;11.75;82.02;101512.78;5097967;28;20052;-89
2023/03/23 00:26:43;;;;;;;9.35;5.75;;;;;;;11.72;81.46;101501.22;5108733;28;20489;-89
2023/03/23 00:29:18;;;;;;;7.93;5.57;;;;;;;11.71;81.96;101508.16;5091400;28;20118;-89
2023/03/23 00:31:48;;;;;;;9.45;5.55;;;;;;;11.38;81.86;101452.94;5108868;28;20157;-89
2023/03/23 00:34:21;;;;;;;8.65;5.70;;;;;;;11.60;81.81;101497.03;5107032;28;20030;-89
2023/03/23 00:36:56;;;;;;;8.35;5.70;;;;;;;11.56;81.96;101488.91;5104222;28;20034;-89
2023/03/23 00:39:26;;;;;;;7.88;5.25;;;;;;;11.75;81.93;101514.50;5098405;28;20032;-91
2023/03/23 00:42:00;;;;;;;8.38;5.72;;;;;;;11.76;81.64;101514.56;5083989;28;20106;-90
2023/03/23 00:44:30;;;;;;;8.27;5.05;;;;;;;11.77;81.89;101515.50;5094954;28;20059;-90
2023/03/23 00:46:56;;;;;;;8.90;5.57;;;;;;;11.60;81.56;101494.44;5110247;28;20023;-90
2023/03/23 00:49:26;;;;;;;9.13;5.40;;;;;;;11.73;81.54;101511.78;5091621;28;20100;-90
2023/03/23 00:51:56;;;;;;;9.55;5.25;;;;;;;11.63;81.38;101491.09;5101055;28;20034;-89
2023/03/23 00:54:23;;;;;;;8.35;5.45;;;;;;;11.70;81.72;101506.34;5089499;28;20097;-89
2023/03/23 00:56:50;;;;;;;7.90;5.10;;;;;;;11.56;81.59;101478.44;5084850;28;20074;-90
2023/03/23 00:59:16;;;;;;;8.23;5.00;;;;;;;11.61;81.33;101490.09;5089436;28;20020;-90
2023/03/23 01:01:42;;;;;;;8.13;5.70;;;;;;;11.76;81.35;101503.19;5105194;28;20065;-89
2023/03/23 01:04:11;;;;;;;9.65;5.30;;;;;;;11.72;81.27;101499.47;5083369;28;20075;-90
2023/03/23 01:06:42;;;;;;;7.63;5.32;;;;;;;11.60;81.50;101486.56;5102728;27;20477;-89
2023/03/23 01:09:14;;;;;;;7.43;5.00;;;;;;;11.70;81.71;101498.47;5100042;28;20035;-89
2023/03/23 01:11:43;;;;;;;8.38;5.35;;;;;;;11.48;81.36;101457.03;5090649;28;20075;-89
2023/03/23 01:14:10;;;;;;;9.00;5.55;;;;;;;11.71;81.56;101502.03;5094855;28;20039;-89
2023/03/23 01:16:36;;;;;;;8.48;5.70;;;;;;;11.71;81.37;101499.41;5090707;28;20523;-89
2023/03/23 01:19:02;;;;;;;9.50;5.85;;;;;;;11.31;81.97;101434.19;5090839;28;20036;-89
2023/03/23 01:21:29;;;;;;;7.32;5.05;;;;;;;11.34;81.86;101431.75;5104314;28;20097;-89
2023/03/23 01:23:55;;;;;;;7.45;5.25;;;;;;;11.55;81.53;101469.69;5084649;28;20528;-89
2023/03/23 01:26:25;;;;;;;9.07;5.72;;;;;;;11.54;81.70;101467.88;5089271;28;20028;-89
2023/03/23 01:28:53;;;;;;;8.07;5.28;;;;;;;11.39;81.90;101438.19;5069245;28;20128;-89
2023/03/23 01:31:21;;;;;;;7.07;5.05;;;;;;;11.70;81.38;101489.75;5067992;28;20027;-88
2023/03/23 01:33:52;;;;;;;8.15;5.30;;;;;;;11.58;81.59;101459.41;5049184;28;20523;-88
2023/03/23 01:36:21;;;;;;;8.13;5.22;;;;;;;11.57;81.87;101470.69;5052309;28;20051;-88
2023/03/23 01:38:48;;;;;;;8.65;4.90;;;;;;;11.52;81.85;101466.00;5068118;28;20101;-88
2023/03/23 01:41:16;;;;;;;7.57;5.10;;;;;;;11.41;81.63;101437.47;5071789;28;20120;-88
2023/03/23 01:44:17;;;;;;;7.18;5.00;;;;;;;11.67;81.72;101482.63;5053038;28;20043;-89
2023/03/23 01:46:43;;;;;;;6.88;4.72;;;;;;;11.61;81.71;101480.53;5000985;28;20057;-88
2023/03/23 01:49:11;;;;;;;7.47;4.85;;;;;;;11.49;81.43;101456.22;5047366;28;20539;-89
2023/03/23 01:51:41;;;;;;;7.35;5.13;;;;;;;11.48;81.50;101449.19;5087612;28;20055;-88
2023/03/23 01:54:08;;;;;;;7.28;4.85;;;;;;;11.64;81.76;101482.44;5059143;28;20056;-88
2023/03/23 01:56:41;;;;;;;7.53;5.30;;;;;;;11.65;81.75;101489.47;5043975;28;20545;-88
2023/03/23 01:59:08;;;;;;;6.93;5.00;;;;;;;11.62;81.41;101484.06;5064000;28;20032;-88
2023/03/23 02:01:38;;;;;;;7.95;5.13;;;;;;;11.56;81.53;101473.22;5081794;28;20099;-88
2023/03/23 02:04:03;;;;;;;7.03;4.75;;;;;;;11.56;81.52;101476.72;5075838;28;20492;-88
2023/03/23 02:06:29;;;;;;;7.13;4.85;;;;;;;11.34;81.03;101435.25;5090572;28;20024;-88
2023/03/23 02:08:55;;;;;;;7.45;5.20;;;;;;;11.55;81.35;101476.63;5074772;28;20114;-88
2023/03/23 02:11:22;;;;;;;7.57;5.18;;;;;;;11.63;80.65;101485.84;5059514;28;20024;-89
2023/03/23 02:13:48;;;;;;;7.22;4.80;;;;;;;11.48;81.61;101466.63;5056156;28;20043;-88
2023/03/23 02:16:14;;;;;;;;;;;;;;;11.64;81.39;101494.59;5041644;28;20421;-88
2023/03/23 02:18:48;;;;;;;7.53;4.80;;;;;;;11.64;81.08;101492.91;5075733;28;19913;-88
2023/03/23 02:21:26;;;;;;;8.02;5.30;;;;;;;11.64;81.53;101494.59;5041331;28;20029;-88
2023/03/23 02:24:27;;;;;;;6.82;4.53;;;;;;;11.56;81.28;101481.06;5094819;28;20053;-86
2023/03/23 02:27:09;;;;;;;8.45;5.10;;;;;;;11.64;81.50;101502.44;5099132;28;20028;-88
2023/03/23 02:29:46;;;;;;;7.30;4.68;;;;;;;11.65;81.40;101509.50;5079593;28;20089;-88
2023/03/23 02:32:40;;;;;;;8.65;5.07;;;;;;;11.45;81.13;101469.03;5110704;28;20035;-88
2023/03/23 02:35:14;;;;;;;6.28;4.40;;;;;;;11.61;81.23;101504.06;5112731;28;20031;-86
2023/03/23 02:37:46;;;;;;;6.80;4.78;;;;;;;11.55;81.26;101495.84;5071952;28;20547;-88
2023/03/23 02:40:20;;;;;;;6.75;4.65;;;;;;;11.41;81.26;101473.19;5078080;28;20065;-88
2023/03/23 02:42:49;;;;;;;7.03;4.88;;;;;;;11.43;81.32;101491.56;5074628;28;20028;-87
2023/03/23 02:45:15;;;;;;;7.07;4.60;;;;;;;11.53;81.58;101505.31;5077899;28;20485;-87
2023/03/23 02:47:41;;;;;;;7.45;5.05;;;;;;;11.31;81.16;101466.47;5084894;28;20036;-88
2023/03/23 02:50:13;;;;;;;6.50;4.70;;;;;;;11.18;81.03;101438.66;5105280;28;20043;-88
2023/03/23 02:52:40;;;;;;;6.80;4.85;;;;;;;11.57;81.26;101511.63;5111199;28;20027;-88
2023/03/23 02:55:07;;;;;;;7.72;5.00;;;;;;;11.46;81.26;101482.19;5102907;28;20600;-88
2023/03/23 02:57:33;;;;;;;7.78;4.93;;;;;;;11.09;81.12;101429.31;5088383;28;20031;-88
2023/03/23 02:59:59;;;;;;;8.02;4.95;;;;;;;11.14;81.05;101444.50;5106707;28;20077;-88
2023/03/23 03:02:28;;;;;;;8.05;4.93;;;;;;;11.56;81.60;101520.31;5101506;28;20036;-88
2023/03/23 03:05:05;;;;;;;7.57;5.13;;;;;;;11.47;81.14;101499.72;5106528;28;20156;-88
2023/03/23 03:07:51;;;;;;;7.22;4.80;;;;;;;11.63;81.09;101522.47;5108582;28;20508;-88
2023/03/23 03:10:32;;;;;;;6.50;4.60;;;;;;;11.51;81.34;101511.25;5104826;28;20031;-87
2023/03/23 03:13:19;;;;;;;6.88;4.75;;;;;;;11.60;80.91;101522.31;5085942;28;20130;-88
2023/03/23 03:15:56;;;;;;;6.35;4.55;;;;;;;11.44;81.20;101503.84;5091509;28;20085;-88
2023/03/23 03:18:26;;;;;;;7.47;4.68;;;;;;;11.46;81.22;101503.13;5094008;28;20108;-89
2023/03/23 03:20:55;;;;;;;6.90;4.55;;;;;;;11.43;81.18;101502.03;5093949;28;20103;-90
2023/03/23 03:23:22;;;;;;;7.40;4.75;;;;;;;11.37;81.17;101492.09;5106421;28;20081;-87
2023/03/23 03:25:48;;;;;;;7.40;4.90;;;;;;;11.15;80.89;101450.63;5062297;28;20024;-87
2023/03/23 03:28:16;;;;;;;6.22;4.60;;;;;;;11.56;80.79;101528.16;5059186;28;20036;-87
2023/03/23 03:30:44;;;;;;;7.32;4.70;;;;;;;11.53;81.06;101521.00;5063129;28;20028;-87
2023/03/23 03:33:11;;;;;;;6.55;4.45;;;;;;;11.60;80.81;101527.53;5057159;28;20024;-88
2023/03/23 03:35:38;;;;;;;6.53;4.32;;;;;;;11.48;80.65;101511.06;5056149;28;20055;-88
2023/03/23 03:38:09;;;;;;;6.97;4.40;;;;;;;11.63;80.52;101532.94;5063978;28;20036;-89
2023/03/23 03:40:38;;;;;;;7.25;4.80;;;;;;;11.15;81.04;101463.69;5069107;28;20028;-89
2023/03/23 03:43:04;;;;;;;6.10;4.38;;;;;;;11.41;80.91;101502.84;5065104;28;20029;-89
2023/03/23 03:45:30;;;;;;;;;;;;;;;11.63;80.88;101537.28;5087803;28;20024;-89
2023/03/23 03:47:55;;;;;;;7.00;4.70;;;;;;;11.43;80.87;101515.09;5063266;28;19920;-88
2023/03/23 03:50:21;;;;;;;6.93;4.50;;;;;;;11.27;81.20;101487.09;5091069;28;20115;-89
2023/03/23 03:52:48;;;;;;;6.63;4.70;;;;;;;11.48;80.78;101522.44;5092039;28;20123;-89
2023/03/23 03:55:13;;;;;;;6.65;4.30;;;;;;;11.36;80.87;101495.50;5072249;28;20016;-89
2023/03/23 03:57:39;;;;;;;7.03;4.55;;;;;;;11.62;80.75;101531.16;5072833;28;20032;-88
2023/03/23 04:00:13;;;;;;;5.93;4.18;;;;;;;11.29;80.77;101485.50;5056076;28;20030;-87
2023/03/23 04:02:41;;;;;;;6.68;4.50;;;;;;;11.59;80.85;101539.69;5063352;28;20090;-88
2023/03/23 04:05:08;;;;;;;6.60;4.70;;;;;;;11.41;80.93;101509.78;5072158;28;20105;-88
2023/03/23 04:07:37;;;;;;;7.22;4.88;;;;;;;11.48;80.63;101526.78;5058217;28;20031;-89
2023/03/23 04:10:08;;;;;;;7.50;4.57;;;;;;;11.38;81.02;101513.09;5072072;28;20065;-89
2023/03/23 04:12:35;;;;;;;6.65;4.35;;;;;;;11.29;80.75;101495.94;5064923;28;20034;-88
2023/03/23 04:15:01;;;;;;;7.93;4.63;;;;;;;11.48;81.01;101527.66;5057586;28;20035;-86
2023/03/23 04:17:27;;;;;;;7.57;4.53;;;;;;;11.44;80.95;101523.06;5082983;28;20020;-89
2023/03/23 04:19:56;;;;;;;6.50;4.60;;;;;;;11.27;80.66;101498.47;5057672;28;20133;-87
2023/03/23 04:22:29;;;;;;;6.68;4.40;;;;;;;11.48;80.85;101529.38;5061213;28;20028;-88
2023/03/23 04:25:00;;;;;;;7.18;4.80;;;;;;;11.37;80.77;101520.88;5081262;28;20047;-90
2023/03/23 04:27:27;;;;;;;6.25;4.40;;;;;;;11.50;80.89;101549.59;5080560;28;20027;-88
2023/03/23 04:29:58;;;;;;;6.35;4.38;;;;;;;11.38;80.51;101528.78;5093909;28;20098;-88
2023/03/23 04:32:28;;;;;;;7.95;4.40;;;;;;;11.15;80.69;101492.44;5092803;28;20676;-90
2023/03/23 04:35:00;;;;;;;6.25;4.47;;;;;;;11.33;80.50;101522.38;5102725;28;20066;-88
2023/03/23 04:37:29;;;;;;;6.35;4.20;;;;;;;11.45;81.02;101550.09;5110569;28;20028;-87
2023/03/23 04:40:00;;;;;;;5.70;4.30;;;;;;;11.53;81.19;101564.56;5110965;28;20027;-88
2023/03/23 04:42:31;;;;;;;5.90;4.07;;;;;;;11.29;81.06;101527.31;5080665;28;20046;-88
2023/03/23 04:44:58;;;;;;;6.75;4.47;;;;;;;11.50;80.64;101575.75;5110933;28;20023;-89
2023/03/23 04:47:24;;;;;;;6.10;4.03;;;;;;;11.39;80.92;101550.63;5093036;28;20024;-88
2023/03/23 04:49:51;;;;;;;6.68;4.22;;;;;;;11.26;81.06;101533.28;5102694;28;20504;-88
2023/03/23 04:52:17;;;;;;;5.90;4.10;;;;;;;11.34;80.79;101544.19;5091499;28;20031;-88
2023/03/23 04:54:44;;;;;;;6.68;4.50;;;;;;;11.11;80.33;101493.06;5103394;28;20039;-88
2023/03/23 04:57:09;;;;;;;5.70;4.10;;;;;;;11.39;81.28;101559.38;5104803;28;20107;-88
2023/03/23 04:59:35;;;;;;;6.25;3.88;;;;;;;11.39;80.76;101555.88;5073494;28;20124;-88
2023/03/23 05:02:02;;;;;;;5.88;4.43;;;;;;;11.35;80.87;101546.91;5111118;28;20020;-88
2023/03/23 05:04:27;;;;;;;7.22;4.13;;;;;;;11.20;80.58;101523.31;5111586;28;20031;-88
2023/03/23 05:06:54;;;;;;;5.82;4.10;;;;;;;11.17;80.80;101530.94;5110482;28;20028;-89
2023/03/23 05:09:21;;;;;;;5.95;4.38;;;;;;;11.33;80.97;101558.97;5110026;28;20401;-88
2023/03/23 05:11:46;;;;;;;6.30;4.25;;;;;;;11.50;80.99;101580.09;5093640;28;20548;-89
2023/03/23 05:14:14;;;;;;;6.70;4.30;;;;;;;11.40;80.86;101566.41;5110312;28;20024;-89
2023/03/23 05:16:41;;;;;;;6.03;4.20;;;;;;;11.49;81.16;101583.50;5102825;28;20030;-86
2023/03/23 05:19:07;;;;;;;6.35;4.43;;;;;;;11.38;81.29;101570.63;5099641;28;20040;-88
2023/03/23 05:21:34;;;;;;;;;;;;;;;11.52;80.69;101587.22;5099884;28;20046;-88
2023/03/23 05:24:00;;;;;;;8.30;4.25;;;;;;;11.44;80.77;101584.91;5109813;28;19919;-88
2023/03/23 05:26:28;;;;;;;;;;;;;;;11.52;80.45;101592.44;5109436;28;20497;-88
2023/03/23 05:28:55;;;;;;;6.63;4.53;;;;;;;11.38;81.04;101582.81;5096603;28;20012;-89
2023/03/23 05:31:24;;;;;;;6.50;4.32;;;;;;;11.14;80.85;101540.31;5110316;28;20469;-89
2023/03/23 05:33:51;;;;;;;6.13;4.10;;;;;;;11.35;80.78;101586.13;5106693;28;20115;-89
2023/03/23 05:36:16;;;;;;;7.25;4.90;;;;;;;11.43;80.91;101606.63;5083705;28;20121;-89
2023/03/23 05:38:45;;;;;;;6.15;4.22;;;;;;;11.43;80.96;101609.25;5097789;28;20497;-88
2023/03/23 05:41:19;;;;;;;6.60;4.30;;;;;;;11.04;80.92;101536.19;5094426;28;20591;-88
2023/03/23 05:43:45;;;;;;;6.20;4.25;;;;;;;11.19;81.00;101570.25;5102431;28;20028;-89
2023/03/23 05:46:12;;;;;;;4.82;3.72;;;;;;;11.29;80.68;101583.13;5112633;28;20050;-88
2023/03/23 05:48:38;;;;;;;5.68;3.72;;;;;;;11.25;81.02;101586.34;5095482;28;20039;-88
2023/03/23 05:51:04;;;;;;;6.05;4.28;;;;;;;11.02;80.87;101544.75;5089256;28;20032;-90
2023/03/23 05:53:30;;;;;;;5.95;4.20;;;;;;;11.20;80.55;101578.22;5073535;28;20098;-89
2023/03/23 05:56:00;;;;;;;5.63;4.00;;;;;;;11.08;80.95;101560.84;5083769;28;20024;-89
2023/03/23 05:58:26;;;;;;;6.15;4.38;;;;;;;11.25;80.76;101582.84;5115069;28;20085;-90
2023/03/23 06:05:03;;;;;;;5.38;3.90;;;;;;;11.44;80.80;101627.66;5114731;28;20093;-89
2023/03/23 06:11:27;;;;;;;5.38;3.78;;;;;;;11.35;80.69;101608.78;4991045;28;20041;-89
2023/03/23 06:17:17;;;;;;;5.70;4.13;;;;;;;11.27;80.70;101589.97;4990679;28;20057;-88
2023/03/23 06:30:47;;;;;;;5.38;3.95;;;;;;;11.12;80.77;101595.13;4962983;28;20140;-91
2023/03/23 06:33:13;;;;;;;4.47;3.90;;;;;;;11.27;80.95;101621.34;5012629;28;20518;-89
2023/03/23 06:35:38;;;;;;;6.25;4.07;;;;;;;11.27;81.03;101625.69;5056565;28;20033;-89
2023/03/23 06:38:04;;;;;;;8.00;4.20;;;;;;;11.19;81.53;101622.56;5075934;28;21888;-89
2023/03/23 06:40:30;;;;;;;10.68;4.47;;;;;;;11.18;80.87;101615.53;5065114;28;20035;-88
2023/03/23 06:43:07;;;;;;;11.00;4.80;;;;;;;11.25;81.32;101638.63;5085863;28;20106;-89
2023/03/23 06:45:35;;;;;;;7.80;4.40;;;;;;;11.07;81.39;101601.75;5055627;28;20760;-90
2023/03/23 06:48:12;;;;;;;8.38;4.57;;;;;;;11.35;81.35;101654.13;5076472;28;20069;-90
2023/03/23 06:50:38;;;;;;;9.85;4.82;;;;;;;11.38;80.83;101659.53;5052907;28;20493;-90
2023/03/23 06:53:06;;;;;;;6.50;4.50;;;;;;;11.16;80.71;101615.44;5069581;28;21892;-92
2023/03/23 06:55:34;;;;;;;8.40;4.50;;;;;;;11.33;80.63;101642.66;5076236;28;20487;-93
2023/03/23 06:58:45;;;;;;;7.25;4.80;;;;;;;11.43;80.87;101662.50;5045909;28;20043;-92
2023/03/23 07:04:51;;;;;;;6.00;4.07;;;;;;;11.37;80.80;101662.09;5060736;28;20109;-91
2023/03/23 07:07:18;;;;;;;;;;;;;;;11.42;80.55;101663.28;5061431;28;20024;-91
2023/03/23 07:13:05;;;;;;;4.90;4.05;;;;;;;11.11;80.59;101611.63;5081505;28;20102;-90
2023/03/23 07:15:31;;;;;;;6.10;4.22;;;;;;;10.79;81.11;101583.34;5066363;28;20028;-90
2023/03/23 07:19:06;;;;;;;5.90;4.10;;;;;;;11.02;80.94;101617.94;5068833;28;20067;-89
2023/03/23 07:21:52;;;;;;;5.65;4.13;;;;;;;11.19;80.96;101641.75;4929213;28;20057;-90
2023/03/23 07:25:12;;;;;;;6.05;4.25;;;;;;;11.38;81.12;101671.72;4971175;28;20025;-90
2023/03/23 07:33:05;;;;;;;5.93;4.18;;;;;;;11.38;80.80;101670.00;5008515;28;20057;-91
2023/03/23 07:39:20;;;;;;;5.03;3.90;;;;;;;11.32;81.40;101669.59;5001754;28;20121;-91
2023/03/23 07:42:01;;;;;;;5.82;4.10;;;;;;;11.29;81.19;101674.66;4977221;28;20038;-92
2023/03/23 07:44:38;;;;;;;7.15;4.13;;;;;;;11.31;81.30;101682.59;4991783;28;20037;-91
2023/03/23 07:47:04;;;;;;;7.00;4.03;;;;;;;11.34;81.12;101669.72;4979635;28;20621;-89
2023/03/23 07:49:44;;;;;;;4.75;3.58;;;;;;;11.30;80.89;101666.00;4997006;28;20037;-92
2023/03/23 07:52:33;;;;;;;5.93;4.22;;;;;;;11.36;80.71;101682.06;5081060;28;20179;-94
2023/03/23 07:55:17;;;;;;;5.60;3.70;;;;;;;11.25;81.23;101662.19;5071078;28;20081;-95
2023/03/23 07:57:44;;;;;;;7.38;4.15;;;;;;;11.23;80.96;101652.44;5076986;28;20035;-95
2023/03/23 08:00:19;;;;;;;9.40;4.32;;;;;;;11.26;81.01;101660.47;5072192;28;20031;-91
2023/03/23 08:02:55;;;;;;;6.68;3.97;;;;;;;11.24;81.26;101657.75;5077918;28;20030;-94
2023/03/23 08:05:26;;;;;;;6.78;4.32;;;;;;;11.38;81.17;101690.03;5074156;28;20053;-94
2023/03/23 08:08:01;;;;;;;6.53;4.28;;;;;;;11.41;81.11;101692.88;5074771;28;20032;-93
2023/03/23 08:10:30;;;;;;;7.65;4.38;;;;;;;11.33;81.14;101692.34;5074402;28;20034;-94
2023/03/23 08:12:57;;;;;;;7.93;4.13;;;;;;;11.36;80.79;101686.41;5074258;28;20028;-92
2023/03/23 08:16:10;;;;;;;6.53;4.28;;;;;;;11.41;80.93;101696.38;5077036;28;20054;-93
2023/03/23 08:18:52;;;;;;;8.48;4.40;;;;;;;11.37;81.02;101696.09;5090525;28;20035;-92
2023/03/23 08:21:26;;;;;;;6.60;3.92;;;;;;;11.29;80.95;101671.13;5069951;28;20036;-88
2023/03/23 08:23:53;;;;;;;5.20;3.88;;;;;;;11.41;80.90;101698.09;5106596;28;20061;-89
2023/03/23 08:26:19;;;;;;;5.35;3.80;;;;;;;11.41;80.90;101701.59;5079509;28;20039;-92
2023/03/23 08:28:45;;;;;;;5.30;3.92;;;;;;;11.41;80.94;101698.09;5069234;28;20162;-89
2023/03/23 08:31:13;;;;;;;6.50;4.00;;;;;;;11.13;80.94;101658.75;5083324;28;20110;-94
2023/03/23 08:33:43;;;;;;;5.85;3.90;;;;;;;11.35;81.15;101698.59;5073579;28;20043;-93
2023/03/23 08:36:11;;;;;;;4.82;3.70;;;;;;;11.31;80.64;101685.22;5068571;28;20089;-92
2023/03/23 08:38:37;;;;;;;4.97;3.53;;;;;;;11.15;80.92;101660.69;5068124;28;20838;-91
2023/03/23 08:41:04;;;;;;;;;;;;;;;11.38;80.88;101704.00;5071352;28;20039;-89
2023/03/23 08:43:37;;;;;;;5.20;3.63;;;;;;;11.40;80.92;101707.63;5084783;28;20301;-92
2023/03/23 08:46:08;;;;;;;5.03;3.20;;;;;;;11.30;80.63;101692.16;5065681;28;20040;-92
2023/03/23 08:48:40;;;;;;;5.07;3.70;;;;;;;11.28;81.01;101687.59;5089910;28;20027;-90
2023/03/23 08:51:08;;;;;;;7.30;4.20;;;;;;;11.46;80.70;101714.97;5095584;28;20019;-91
2023/03/23 08:53:36;;;;;;;5.70;3.65;;;;;;;11.37;80.30;101699.59;5095212;28;20043;-91
2023/03/23 08:56:25;;;;;;;7.80;4.03;;;;;;;11.43;81.06;101720.03;5095287;28;20019;-94
2023/03/23 08:59:04;;;;;;;5.72;3.92;;;;;;;11.43;80.80;101716.47;5075366;28;20020;-93
2023/03/23 09:01:37;;;;;;;6.07;4.03;;;;;;;11.37;81.38;101722.22;5073392;28;20030;-93
2023/03/23 09:04:39;;;;;;;5.25;3.75;;;;;;;11.41;81.47;101716.41;5075055;28;20486;-93
2023/03/23 09:07:19;;;;;;;5.10;3.33;;;;;;;11.37;81.43;101710.06;5082743;28;20171;-92
2023/03/23 09:09:52;;;;;;;6.65;3.90;;;;;;;11.44;81.17;101715.69;5109971;28;20026;-93
2023/03/23 09:12:30;;;;;;;5.50;3.80;;;;;;;11.45;81.82;101720.09;5092051;28;20020;-93
2023/03/23 09:15:08;;;;;;;5.90;3.67;;;;;;;11.50;81.38;101729.19;5098866;28;20493;-93
2023/03/23 09:17:49;;;;;;;6.60;3.85;;;;;;;11.51;81.28;101725.75;5094808;28;20503;-92
2023/03/23 09:20:20;;;;;;;5.68;3.80;;;;;;;11.31;82.11;101693.97;5095227;28;20028;-92
2023/03/23 09:23:13;;;;;;;6.32;3.75;;;;;;;11.52;82.03;101724.94;5077494;28;20023;-92
2023/03/23 09:29:20;;;;;;;6.40;3.80;;;;;;;11.51;81.92;101710.03;5105451;28;20042;-93
2023/03/23 09:32:07;;;;;;;6.18;3.22;;;;;;;11.63;81.75;101718.69;5058261;28;20036;-94
2023/03/23 09:34:41;;;;;;;7.18;3.92;;;;;;;11.59;81.95;101720.19;5064087;28;20062;-94
2023/03/23 09:37:25;;;;;;;4.95;3.40;;;;;;;11.60;81.96;101711.56;5071405;28;20035;-93
2023/03/23 09:40:42;;;;;;;4.63;3.42;;;;;;;11.64;81.98;101717.91;5101720;28;20024;-93
2023/03/23 09:43:44;;;;;;;5.00;3.50;;;;;;;11.65;82.03;101711.84;5083537;28;20040;-93
2023/03/23 09:49:53;;;;;;;4.03;3.35;;;;;;;11.62;83.01;101719.53;5102207;28;20539;-94
2023/03/23 09:52:56;;;;;;;8.35;3.58;;;;;;;11.67;82.89;101720.72;5077691;28;20028;-93
2023/03/23 09:55:54;;;;;;;6.57;3.55;;;;;;;11.66;83.36;101718.88;5112440;28;20023;-92
2023/03/23 10:01:46;;;;;;;6.82;3.60;;;;;;;11.65;84.05;101724.94;5115574;28;19939;-93
2023/03/23 10:05:00;;;;;;;5.80;3.33;;;;;;;11.66;85.04;101724.09;5087038;28;20089;-93
2023/03/23 10:07:27;;;;;;;5.65;3.10;;;;;;;11.70;84.87;101720.00;5107560;28;20030;-93
2023/03/23 10:10:27;;;;;;;5.82;3.50;;;;;;;11.75;84.73;101719.50;5096408;28;20043;-92
2023/03/23 10:13:19;;;;;;;6.30;3.15;;;;;;;11.71;85.65;101727.06;5095493;28;20032;-91
2023/03/23 10:16:05;;;;;;;6.32;3.50;;;;;;;11.73;86.10;101723.72;5081785;28;20492;-93
2023/03/23 10:18:43;;;;;;;7.15;3.45;;;;;;;11.75;86.36;101727.34;5068768;28;20458;-92
2023/03/23 10:21:16;;;;;;;6.63;3.60;;;;;;;11.55;86.66;101689.41;5079239;28;20127;-89
2023/03/23 10:23:57;;;;;;;7.13;3.90;;;;;;;11.71;86.76;101717.47;5079112;28;20035;-92
2023/03/23 10:26:40;;;;;;;7.13;3.92;;;;;;;11.73;87.49;101723.72;5085536;28;20016;-91
2023/03/23 10:29:47;;;;;;;6.70;3.40;;;;;;;11.73;88.03;101725.44;5087907;28;20036;-91
2023/03/23 10:32:20;;;;;;;7.28;3.55;;;;;;;11.74;88.02;101720.28;5072864;28;20032;-91
2023/03/23 10:34:58;;;;;;;7.07;3.40;;;;;;;11.63;88.35;101696.88;5080997;28;20024;-92
2023/03/23 10:37:52;;;;;;;9.32;3.65;;;;;;;11.75;87.87;101715.97;5080530;28;20019;-92
2023/03/23 10:40:26;;;;;;;6.32;3.65;;;;;;;11.73;88.09;101713.25;5081479;28;20562;-92
2023/03/23 10:42:54;;;;;;;6.07;3.70;;;;;;;11.80;88.27;101710.22;5077633;28;20047;-92
2023/03/23 10:45:21;;;;;;;7.45;4.07;;;;;;;11.81;88.42;101711.16;5071541;28;20020;-92
2023/03/23 10:47:55;;;;;;;6.82;3.58;;;;;;;11.79;88.70;101710.13;5084805;28;20039;-91
2023/03/23 10:50:27;;;;;;;5.93;3.67;;;;;;;11.75;88.57;101702.91;5080041;28;20077;-90
2023/03/23 10:52:54;;;;;;;6.05;3.63;;;;;;;11.71;88.50;101693.03;5080146;28;20032;-92
2023/03/23 10:55:52;;;;;;;7.53;3.97;;;;;;;11.84;88.70;101721.78;5063469;28;20082;-91
2023/03/23 10:58:32;;;;;;;7.20;4.00;;;;;;;11.86;88.47;101719.28;5075667;28;20027;-91
2023/03/23 11:01:06;;;;;;;8.07;3.97;;;;;;;11.82;89.08;101718.16;5097638;28;20040;-92
2023/03/23 11:03:42;;;;;;;6.25;3.80;;;;;;;11.82;89.02;101711.22;5097406;28;20024;-91
2023/03/23 11:06:31;;;;;;;4.72;3.53;;;;;;;11.81;89.13;101716.38;5076949;28;20178;-90
2023/03/23 11:09:17;;;;;;;6.35;3.90;;;;;;;11.67;88.87;101689.31;5080012;28;20857;-91
2023/03/23 11:11:51;;;;;;;8.30;3.97;;;;;;;11.72;89.09;101694.84;5075380;28;20047;-92
2023/03/23 11:14:38;;;;;;;9.07;3.83;;;;;;;11.81;89.26;101712.03;5071326;28;20783;-93
2023/03/23 11:17:31;;;;;;;6.30;3.80;;;;;;;11.88;89.11;101715.06;5079907;28;20024;-92
2023/03/23 11:20:10;;;;;;;7.53;3.90;;;;;;;11.74;89.24;101687.97;5072368;28;20042;-92
2023/03/23 11:25:57;;;;;;;5.57;3.47;;;;;;;11.95;88.47;101704.19;5105849;28;20104;-89
2023/03/23 11:28:31;;;;;;;5.97;3.72;;;;;;;11.84;89.01;101687.78;5092887;28;20095;-90
2023/03/23 11:30:58;;;;;;;6.38;3.80;;;;;;;11.94;89.34;101697.16;5085949;28;20126;-92
2023/03/23 11:36:59;;;;;;;6.63;3.80;;;;;;;11.80;89.19;101670.97;5108523;28;20108;-93
2023/03/23 11:40:12;;;;;;;8.70;3.80;;;;;;;12.00;89.13;101690.59;5095923;28;20120;-94
2023/03/23 11:43:01;;;;;;;5.35;3.70;;;;;;;11.99;89.17;101685.25;5113905;28;20042;-92
2023/03/23 11:48:57;;;;;;;8.05;3.40;;;;;;;12.00;89.81;101682.75;5114963;28;20046;-92
2023/03/23 11:52:04;;;;;;;7.30;3.88;;;;;;;12.06;89.59;101687.44;5096946;28;20118;-93
2023/03/23 11:57:48;;;;;;;7.30;3.60;;;;;;;12.01;90.52;101679.28;5104803;28;20027;-94
2023/03/23 12:00:26;;;;;;;10.68;3.95;;;;;;;12.05;91.08;101680.41;5091714;28;20016;-93
2023/03/23 12:03:40;;;;;;;9.32;3.65;;;;;;;12.08;91.49;101684.91;5107176;28;20081;-93
2023/03/23 12:06:06;;;;;;;8.45;4.25;;;;;;;12.11;91.10;101687.75;5107854;28;20023;-91
2023/03/23 12:09:10;;;;;;;8.52;4.38;;;;;;;12.15;91.27;101689.72;5083058;28;20063;-90
2023/03/23 12:11:38;;;;;;;7.00;3.63;;;;;;;12.17;91.68;101688.09;5099648;28;20054;-93
2023/03/23 12:14:13;;;;;;;8.10;3.80;;;;;;;12.15;92.51;101680.16;5114749;28;20125;-93
2023/03/23 12:17:05;;;;;;;8.93;4.03;;;;;;;12.17;92.67;101683.78;5101529;28;20035;-93
2023/03/23 12:20:09;;;;;;;8.70;4.03;;;;;;;12.18;93.15;101682.06;5108527;28;20028;-93
2023/03/23 12:23:02;;;;;;;7.95;4.05;;;;;;;12.22;92.91;101678.84;5109498;28;20031;-93
2023/03/23 12:25:43;;;;;;;11.70;4.40;;;;;;;12.21;92.70;101677.00;5086292;28;20055;-93
2023/03/23 12:28:47;;;;;;;8.43;4.40;;;;;;;12.20;93.63;101669.97;5076705;28;20130;-90
2023/03/23 12:31:23;;;;;;;12.48;4.38;;;;;;;12.19;93.44;101657.69;5011585;28;20531;-91
2023/03/23 12:34:11;;;;;;;9.55;4.65;;;;;;;12.25;94.28;101659.78;4995622;28;20092;-92
2023/03/23 12:36:55;;;;;;;7.93;4.68;;;;;;;12.22;94.29;101658.78;5060301;28;20471;-92
2023/03/23 12:40:01;;;;;;;10.80;4.63;;;;;;;12.22;94.60;101656.16;5079767;28;20089;-92
2023/03/23 12:42:44;;;;;;;8.45;4.72;;;;;;;12.25;94.61;101657.16;5061716;28;20034;-93
2023/03/23 12:45:12;;;;;;;11.18;4.95;;;;;;;12.15;94.74;101646.13;5055782;28;20024;-91
2023/03/23 12:47:46;;;;;;;7.90;4.22;;;;;;;12.24;94.81;101669.34;5074578;28;20028;-96
2023/03/23 12:50:30;;;;;;;8.88;4.50;;;;;;;12.26;95.03;101659.88;5056105;28;20624;-92
2023/03/23 12:53:07;;;;;;;10.38;4.22;;;;;;;12.29;94.53;101659.16;5052556;28;20016;-91
2023/03/23 12:56:10;;;;;;;10.18;4.90;;;;;;;12.25;94.71;101658.06;5044117;28;20039;-92
2023/03/23 12:58:46;;;;;;;7.72;4.63;;;;;;;11.86;95.45;101585.81;5086638;28;20029;-92
2023/03/23 13:01:26;;;;;;;8.77;5.00;;;;;;;12.27;95.30;101653.81;5041234;28;20032;-91
2023/03/23 13:04:09;;;;;;;6.20;4.20;;;;;;;12.18;95.05;101629.69;5052283;28;20037;-93